.
WxDataArchive / Data Records for 2008-05-22
2008-05-21 May 2008 2008-05-23

Data Records for Thursday, 22 May 2008

Time	Temp	Chill	HIndex	Humid	Dewpt	 Wind 	HiWind	WindDir	Rain 	Barom 
-----	----	-----	------	-----	-----	------	------	-------	-----	----- 
00:00	48.5	48.5	48.5	66	37.7	0	1	292	0.00	29.662 
00:05	48.8	48.8	48.8	65	37.6	0	1	292	0.00	29.658 
00:10	49.1	49.1	49.1	65	37.8	0	2	292	0.00	29.657 
00:15	49.2	49.2	49.2	65	37.9	0	1	292	0.00	29.656 
00:20	49.2	49.2	49.2	65	37.9	0	1	292	0.00	29.655 
00:25	49.2	49.2	49.2	65	37.9	0	1	292	0.00	29.655 
00:30	49.1	49.1	49.1	65	37.8	0	1	292	0.00	29.655 
00:35	48.9	48.9	48.9	65	37.7	0	1	292	0.00	29.656 
00:40	48.9	48.9	48.9	65	37.7	0	1	292	0.00	29.656 
00:45	48.9	48.9	48.9	65	37.7	0	1	292	0.00	29.658 
00:50	48.9	48.9	48.9	65	37.7	0	1	292	0.00	29.657 
00:55	48.9	48.9	48.9	65	37.7	0	1	292	0.00	29.658 
01:00	49.1	49.1	49.1	64	37.5	0	1	292	0.00	29.659 
01:05	49.1	49.1	49.1	65	37.8	0	1	292	0.00	29.660 
01:10	49.2	49.2	49.2	65	37.9	0	1	292	0.00	29.659 
01:15	49.2	49.2	49.2	64	37.5	0	2	292	0.00	29.657 
01:20	49.4	49.4	49.4	64	37.7	0	1	292	0.00	29.659 
01:25	49.5	49.5	49.5	64	37.8	0	1	292	0.00	29.660 
01:30	49.8	49.8	49.8	64	38.1	0	1	292	0.00	29.667 
01:35	49.8	49.8	49.8	66	38.9	0	2	292	0.00	29.676 
01:40	49.8	49.8	49.8	64	38.1	0	2	292	0.00	29.672 
01:45	50.1	50.1	50.1	63	38.0	0	1	292	0.00	29.684 
01:50	50.5	50.5	50.5	61	37.6	0	2	292	0.00	29.682 
01:55	50.7	50.7	50.7	62	38.2	0	2	292	0.00	29.684 
02:00	50.7	50.7	50.7	61	37.7	0	1	292	0.00	29.684 
02:05	50.7	50.7	50.7	62	38.2	0	1	292	0.00	29.685 
02:10	50.7	50.7	50.7	62	38.2	0	1	292	0.00	29.686 
02:15	50.4	50.4	50.4	62	37.9	0	0	---	0.00	29.689 
02:20	50.1	50.1	50.1	64	38.4	0	1	292	0.00	29.697 
02:25	49.6	49.6	49.6	64	37.9	0	0	---	0.00	29.697 
02:30	49.2	49.2	49.2	65	37.9	0	0	---	0.00	29.696 
02:35	48.9	48.9	48.9	66	38.0	0	0	---	0.00	29.698 
02:40	48.3	48.3	48.3	68	38.2	0	0	---	0.00	29.699 
02:45	47.9	47.9	47.9	69	38.2	0	0	---	0.00	29.701 
02:50	47.4	47.4	47.4	69	37.7	0	0	---	0.00	29.702 
02:55	47.0	47.0	47.0	70	37.7	0	0	---	0.00	29.703 
03:00	46.7	46.7	46.7	71	37.8	0	0	---	0.00	29.707 
03:05	46.2	46.2	46.2	72	37.7	0	0	---	0.00	29.706 
03:10	45.8	45.8	45.8	73	37.6	0	0	---	0.00	29.707 
03:15	45.5	45.5	45.5	74	37.7	0	0	---	0.00	29.706 
03:20	45.2	45.2	45.2	75	37.8	0	0	---	0.00	29.706 
03:25	44.9	44.9	44.9	76	37.8	0	0	---	0.00	29.709 
03:30	44.5	44.5	44.5	77	37.7	0	0	---	0.00	29.709 
03:35	44.2	44.2	44.2	78	37.8	0	0	---	0.00	29.708 
03:40	43.9	43.9	43.9	79	37.8	0	0	---	0.00	29.709 
03:45	43.6	43.6	43.6	80	37.8	0	0	---	0.00	29.714 
03:50	43.3	43.3	43.3	81	37.9	0	0	---	0.00	29.717 
03:55	43.1	43.1	43.1	81	37.7	0	0	---	0.00	29.719 
04:00	42.9	42.9	42.9	82	37.8	0	0	---	0.00	29.720 
04:05	42.8	42.8	42.8	82	37.7	0	0	---	0.00	29.720 
04:10	42.5	42.5	42.5	83	37.7	0	0	---	0.00	29.719 
04:15	42.3	42.3	42.3	84	37.8	0	0	---	0.00	29.719 
04:20	42.1	42.1	42.1	84	37.6	0	0	---	0.00	29.720 
04:25	41.8	41.8	41.8	85	37.6	0	0	---	0.00	29.720 
04:30	41.6	41.6	41.6	85	37.4	0	0	---	0.00	29.720 
04:35	41.5	41.5	41.5	86	37.6	0	0	---	0.00	29.720 
04:40	41.3	41.3	41.3	86	37.4	0	0	---	0.00	29.720 
04:45	41.2	41.2	41.2	87	37.6	0	0	---	0.00	29.722 
04:50	41.1	41.1	41.1	87	37.5	0	0	---	0.00	29.724 
04:55	40.9	40.9	40.9	88	37.6	0	0	---	0.00	29.733 
05:00	40.8	40.8	40.8	88	37.5	0	0	---	0.00	29.736 
05:05	40.8	40.8	40.8	89	37.8	0	0	---	0.00	29.737 
05:10	40.8	40.8	40.8	89	37.8	0	0	---	0.00	29.737 
05:15	40.9	40.9	40.9	89	37.9	0	0	---	0.00	29.737 
05:20	40.8	40.8	40.8	90	38.1	0	0	---	0.00	29.737 
05:25	40.8	40.8	40.8	90	38.1	0	0	---	0.00	29.738 
05:30	40.6	40.6	40.6	90	37.9	0	0	---	0.00	29.739 
05:35	40.6	40.6	40.6	90	37.9	0	0	---	0.00	29.739 
05:40	40.6	40.6	40.6	90	37.9	0	0	---	0.00	29.742 
05:45	40.8	40.8	40.8	90	38.1	0	0	---	0.00	29.748 
05:50	40.9	40.9	40.9	91	38.5	0	0	---	0.00	29.752 
05:55	41.2	41.2	41.2	91	38.8	0	0	---	0.00	29.754 
06:00	41.3	41.3	41.3	91	38.9	0	0	---	0.00	29.755 
06:05	41.5	41.5	41.5	91	39.1	0	0	---	0.00	29.757 
06:10	41.8	41.8	41.8	91	39.4	0	0	---	0.00	29.760 
06:15	42.5	42.5	42.5	91	40.1	0	0	---	0.00	29.765 
06:20	43.6	43.6	43.6	91	41.1	0	1	292	0.00	29.766 
06:25	44.8	44.8	44.8	90	42.0	0	1	292	0.00	29.764 
06:30	46.0	46.0	46.0	87	42.4	0	1	292	0.00	29.763 
06:35	47.0	47.0	47.0	84	42.4	0	1	292	0.00	29.765 
06:40	47.9	47.9	47.9	81	42.4	0	1	292	0.00	29.763 
06:45	48.8	48.8	48.8	79	42.6	0	1	292	0.00	29.763 
06:50	49.5	49.5	49.5	77	42.6	0	2	292	0.00	29.764 
06:55	50.2	50.2	50.2	75	42.6	0	2	292	0.00	29.762 
07:00	50.8	50.8	50.8	71	41.7	1	3	248	0.00	29.764 
07:05	51.1	51.1	51.1	69	41.3	1	4	315	0.00	29.764 
07:10	51.4	51.4	51.4	67	40.8	1	3	292	0.00	29.764 
07:15	51.6	51.6	51.6	65	40.2	1	4	292	0.00	29.766 
07:20	51.9	51.9	51.9	67	41.3	0	2	292	0.00	29.765 
07:25	52.0	52.0	52.0	65	40.6	1	2	338	0.00	29.764 
07:30	52.5	52.5	52.5	66	41.5	0	3	0	0.00	29.764 
07:35	52.9	52.9	52.9	64	41.1	0	2	0	0.00	29.762 
07:40	53.3	53.3	53.3	62	40.6	1	3	270	0.00	29.766 
07:45	53.3	53.3	53.3	62	40.6	1	3	315	0.00	29.771 
07:50	53.5	53.5	53.5	62	40.8	1	4	0	0.00	29.775 
07:55	53.8	53.8	53.8	61	40.7	0	3	292	0.00	29.776 
08:00	53.9	53.9	53.9	62	41.2	1	3	315	0.00	29.776 
08:05	54.4	54.4	54.4	60	40.8	1	2	315	0.00	29.780 
08:10	54.7	54.7	54.7	61	41.5	0	2	315	0.00	29.780 
08:15	55.1	55.1	55.1	60	41.5	0	2	315	0.00	29.780 
08:20	55.7	55.7	55.7	60	42.0	0	2	315	0.00	29.780 
08:25	56.0	56.0	56.0	58	41.4	1	2	292	0.00	29.780 
08:30	56.0	56.0	56.0	59	41.9	1	4	292	0.00	29.780 
08:35	56.5	56.5	56.5	60	42.8	0	2	338	0.00	29.780 
08:40	56.3	56.3	56.3	56	40.8	1	3	338	0.00	29.782 
08:45	56.6	56.6	56.6	57	41.5	0	2	0	0.00	29.780 
08:50	56.5	56.5	56.5	57	41.5	1	4	270	0.00	29.778 
08:55	56.7	56.7	56.7	55	40.7	1	4	248	0.00	29.780 
09:00	57.2	57.2	57.2	54	40.7	1	3	0	0.00	29.782 
09:05	57.3	57.3	57.3	55	41.3	1	3	270	0.00	29.786 
09:10	57.5	57.5	57.5	57	42.4	1	3	22	0.00	29.780 
09:15	57.6	57.6	57.6	54	41.1	1	4	338	0.00	29.776 
09:20	57.5	57.5	57.5	54	41.0	1	3	292	0.00	29.778 
09:25	57.6	57.6	57.6	56	42.0	0	2	292	0.00	29.781 
09:30	58.3	58.3	58.3	52	40.8	1	3	292	0.00	29.780 
09:35	58.9	58.9	58.9	52	41.3	1	3	270	0.00	29.781 
09:40	58.7	58.7	58.7	53	41.6	1	3	292	0.00	29.784 
09:45	58.6	58.6	58.6	54	42.0	1	3	315	0.00	29.785 
09:50	59.2	59.2	59.2	57	44.0	1	2	270	0.00	29.789 
09:55	59.2	59.2	59.2	52	41.6	1	3	315	0.00	29.794 
10:00	59.2	59.2	59.2	54	42.6	1	3	68	0.00	29.797 
10:05	59.6	59.6	59.6	56	43.9	1	3	68	0.00	29.797 
10:10	59.9	59.9	59.9	52	42.2	1	3	315	0.00	29.800 
10:15	59.9	59.9	59.9	57	44.6	1	4	270	0.00	29.808 
10:20	59.9	59.9	59.9	51	41.7	1	3	292	0.00	29.810 
10:25	59.6	59.6	59.6	54	42.9	1	3	315	0.00	29.817 
10:30	60.1	60.1	60.1	54	43.4	1	2	270	0.00	29.822 
10:35	59.9	59.9	59.9	55	43.7	1	6	292	0.00	29.825 
10:40	59.9	59.9	59.9	54	43.2	1	2	0	0.00	29.825 
10:45	60.1	60.1	60.1	52	42.4	1	2	0	0.00	29.825 
10:50	59.8	59.8	59.8	51	41.6	2	4	292	0.00	29.827 
10:55	59.6	59.6	59.6	53	42.4	1	4	292	0.00	29.828 
11:00	59.9	59.9	59.9	54	43.2	1	3	315	0.00	29.835 
11:05	60.2	60.2	60.2	51	42.0	1	3	315	0.00	29.838 
11:10	60.7	60.7	60.7	51	42.5	1	4	292	0.00	29.838 
11:15	60.7	60.7	60.7	52	43.0	1	3	315	0.00	29.838 
11:20	60.7	60.7	60.7	52	43.0	1	4	45	0.00	29.842 
11:25	61.3	61.3	61.3	52	43.5	0	3	315	0.00	29.848 
11:30	61.3	61.3	61.3	51	43.0	1	5	292	0.00	29.843 
11:35	61.5	61.5	61.5	53	44.2	1	4	270	0.00	29.838 
11:40	61.8	61.8	61.8	52	44.0	0	2	315	0.00	29.841 
11:45	62.0	62.0	62.0	53	44.7	1	3	0	0.00	29.840 
11:50	62.1	62.1	62.1	51	43.8	1	4	270	0.00	29.841 
11:55	62.1	62.1	62.1	53	44.8	1	4	338	0.00	29.839 
12:00	62.0	62.0	62.0	51	43.7	1	4	0	0.00	29.841 
12:05	62.1	62.1	62.1	53	44.8	1	3	0	0.00	29.840 
12:10	62.3	62.3	62.3	52	44.4	1	3	0	0.00	29.842 
12:15	62.4	62.4	62.4	52	44.5	1	2	248	0.00	29.840 
12:20	62.4	62.4	62.4	51	44.0	1	3	292	0.00	29.839 
12:25	62.6	62.6	62.6	51	44.2	1	5	292	0.00	29.842 
12:30	62.7	62.7	62.7	51	44.3	1	4	0	0.00	29.842 
12:35	62.7	62.7	62.7	52	44.8	1	5	292	0.00	29.849 
12:40	63.4	63.4	63.4	51	45.0	1	5	315	0.00	29.853 
12:45	63.4	63.4	63.4	49	43.9	1	3	315	0.00	29.853 
12:50	63.7	63.7	63.7	48	43.6	1	4	0	0.00	29.854 
12:55	63.9	63.9	63.9	50	44.9	1	3	270	0.00	29.855 
13:00	64.2	64.2	64.2	48	44.1	2	4	292	0.00	29.853 
13:05	64.0	64.0	64.0	51	45.5	1	3	292	0.00	29.850 
13:10	64.2	64.2	64.2	45	42.4	1	3	22	0.00	29.848 
13:15	64.0	64.0	64.0	44	41.6	1	3	315	0.00	29.851 
13:20	64.2	64.2	64.2	48	44.1	1	3	292	0.00	29.850 
13:25	64.2	64.2	64.2	47	43.5	2	5	0	0.00	29.849 
13:30	64.5	64.5	64.5	48	44.4	1	2	45	0.00	29.839 
13:35	65.2	65.2	65.2	49	45.6	0	3	338	0.00	29.838 
13:40	64.8	64.8	64.8	42	41.2	1	5	270	0.00	29.834 
13:45	64.8	64.8	64.8	45	43.0	1	3	315	0.00	29.830 
13:50	65.2	65.2	65.2	46	43.9	1	3	315	0.00	29.833 
13:55	65.2	65.2	65.2	44	42.7	0	2	315	0.00	29.834 
14:00	65.3	65.3	65.3	43	42.2	1	4	292	0.00	29.835 
14:05	65.8	65.8	65.8	45	43.9	1	4	315	0.00	29.840 
14:10	65.8	65.8	65.8	42	42.1	1	4	22	0.00	29.843 
14:15	66.1	66.1	66.1	42	42.3	1	3	315	0.00	29.839 
14:20	65.6	65.6	65.6	41	41.3	2	5	270	0.00	29.845 
14:25	65.3	65.3	65.3	45	43.4	1	4	315	0.00	29.845 
14:30	65.5	65.5	65.5	44	43.0	1	2	315	0.00	29.848 
14:35	65.3	65.3	65.3	41	41.0	1	4	315	0.00	29.848 
14:40	65.2	65.2	65.2	41	40.9	1	3	248	0.00	29.851 
14:45	65.2	65.2	65.2	42	41.5	1	3	270	0.00	29.841 
14:50	65.0	65.0	65.0	42	41.3	1	3	270	0.00	29.845 
14:55	65.6	65.6	65.6	41	41.3	1	3	292	0.00	29.844 
15:00	65.3	65.3	65.3	42	41.6	1	3	292	0.00	29.846 
15:05	65.0	65.0	65.0	45	43.1	0	2	292	0.00	29.853 
15:10	65.0	65.0	65.0	45	43.1	1	3	292	0.00	29.854 
15:15	64.8	64.8	64.8	43	41.8	0	1	270	0.00	29.856 
15:20	64.8	64.8	64.8	45	43.0	0	3	292	0.00	29.856 
15:25	65.0	65.0	65.0	46	43.7	1	4	45	0.00	29.854 
15:30	64.7	64.7	64.7	44	42.3	1	3	45	0.00	29.856 
15:35	64.7	64.7	64.7	44	42.3	1	3	248	0.00	29.857 
15:40	64.5	64.5	64.5	44	42.1	0	3	338	0.00	29.856 
15:45	65.0	65.0	65.0	46	43.7	0	3	0	0.00	29.858 
15:50	65.5	65.5	65.5	45	43.6	1	4	112	0.00	29.858 
15:55	65.3	65.3	65.3	46	44.0	1	2	315	0.00	29.857 
16:00	65.3	65.3	65.3	44	42.8	1	3	315	0.00	29.857 
16:05	65.3	65.3	65.3	43	42.2	1	3	270	0.00	29.860 
16:10	65.0	65.0	65.0	43	42.0	0	2	315	0.00	29.859 
16:15	64.7	64.7	64.7	44	42.3	0	2	315	0.00	29.862 
16:20	64.5	64.5	64.5	45	42.7	0	2	315	0.00	29.863 
16:25	64.3	64.3	64.3	44	41.9	0	1	315	0.00	29.866 
16:30	64.5	64.5	64.5	44	42.1	0	2	315	0.00	29.865 
16:35	64.8	64.8	64.8	45	43.0	0	2	315	0.00	29.865 
16:40	65.3	65.3	65.3	43	42.2	0	2	248	0.00	29.867 
16:45	65.6	65.6	65.6	43	42.5	1	2	248	0.00	29.867 
16:50	65.3	65.3	65.3	42	41.6	1	3	248	0.00	29.866 
16:55	65.2	65.2	65.2	43	42.1	0	2	248	0.00	29.869 
17:00	65.2	65.2	65.2	43	42.1	1	3	248	0.00	29.868 
17:05	65.3	65.3	65.3	42	41.6	1	4	90	0.00	29.863 
17:10	65.2	65.2	65.2	43	42.1	0	2	292	0.00	29.867 
17:15	65.2	65.2	65.2	44	42.7	0	4	270	0.00	29.865 
17:20	65.2	65.2	65.2	43	42.1	0	2	315	0.00	29.866 
17:25	65.2	65.2	65.2	42	41.5	0	2	315	0.00	29.866 
17:30	65.2	65.2	65.2	41	40.9	1	3	315	0.00	29.869 
17:35	64.8	64.8	64.8	43	41.8	0	2	315	0.00	29.870 
17:40	64.8	64.8	64.8	43	41.8	0	3	315	0.00	29.862 
17:45	64.8	64.8	64.8	44	42.4	0	2	292	0.00	29.863 
17:50	65.0	65.0	65.0	42	41.3	1	3	292	0.00	29.861 
17:55	65.0	65.0	65.0	42	41.3	0	2	292	0.00	29.865 
18:00	64.7	64.7	64.7	42	41.1	0	2	248	0.00	29.863 
18:05	64.5	64.5	64.5	43	41.5	0	1	292	0.00	29.856 
18:10	64.2	64.2	64.2	45	42.4	0	1	292	0.00	29.854 
18:15	64.2	64.2	64.2	43	41.2	0	2	292	0.00	29.854 
18:20	64.0	64.0	64.0	43	41.1	0	2	270	0.00	29.856 
18:25	63.9	63.9	63.9	43	41.0	0	1	270	0.00	29.855 
18:30	63.9	63.9	63.9	46	42.7	0	2	270	0.00	29.854 
18:35	63.5	63.5	63.5	45	41.8	0	1	292	0.00	29.853 
18:40	63.1	63.1	63.1	45	41.4	0	1	292	0.00	29.854 
18:45	62.7	62.7	62.7	46	41.6	0	1	292	0.00	29.855 
18:50	62.6	62.6	62.6	46	41.5	0	1	292	0.00	29.855 
18:55	62.4	62.4	62.4	47	41.9	0	0	---	0.00	29.855 
19:00	62.3	62.3	62.3	48	42.4	0	1	292	0.00	29.859 
19:05	62.3	62.3	62.3	48	42.4	0	0	---	0.00	29.853 
19:10	62.1	62.1	62.1	48	42.2	0	0	---	0.00	29.856 
19:15	62.0	62.0	62.0	48	42.1	0	0	---	0.00	29.854 
19:20	61.8	61.8	61.8	48	41.9	0	0	---	0.00	29.853 
19:25	61.8	61.8	61.8	47	41.4	0	0	---	0.00	29.856 
19:30	61.5	61.5	61.5	48	41.6	0	0	---	0.00	29.858 
19:35	61.3	61.3	61.3	48	41.4	0	0	---	0.00	29.861 
19:40	61.0	61.0	61.0	49	41.7	0	0	---	0.00	29.862 
19:45	60.7	60.7	60.7	49	41.4	0	0	---	0.00	29.861 
19:50	60.2	60.2	60.2	51	42.0	0	2	292	0.00	29.865 
19:55	60.1	60.1	60.1	52	42.4	0	1	292	0.00	29.862 
20:00	59.8	59.8	59.8	53	42.6	0	0	---	0.00	29.866 
20:05	59.5	59.5	59.5	53	42.4	0	1	292	0.00	29.866 
20:10	59.2	59.2	59.2	53	42.1	0	1	292	0.00	29.865 
20:15	58.9	58.9	58.9	54	42.3	0	0	---	0.00	29.865 
20:20	58.6	58.6	58.6	54	42.0	0	1	292	0.00	29.865 
20:25	58.3	58.3	58.3	54	41.7	0	0	---	0.00	29.867 
20:30	57.8	57.8	57.8	55	41.7	0	0	---	0.00	29.866 
20:35	57.5	57.5	57.5	55	41.5	0	0	---	0.00	29.866 
20:40	57.2	57.2	57.2	55	41.2	0	0	---	0.00	29.867 
20:45	57.0	57.0	57.0	56	41.5	0	1	292	0.00	29.867 
20:50	56.7	56.7	56.7	56	41.2	0	0	---	0.00	29.867 
20:55	56.6	56.6	56.6	57	41.5	0	0	---	0.00	29.867 
21:00	56.5	56.5	56.5	58	41.9	0	0	---	0.00	29.871 
21:05	56.3	56.3	56.3	58	41.7	0	0	---	0.00	29.873 
21:10	56.3	56.3	56.3	58	41.7	0	0	---	0.00	29.875 
21:15	56.2	56.2	56.2	59	42.1	0	0	---	0.00	29.879 
21:20	56.2	56.2	56.2	58	41.6	0	0	---	0.00	29.879 
21:25	56.0	56.0	56.0	59	41.9	0	0	---	0.00	29.877 
21:30	55.9	55.9	55.9	59	41.8	0	0	---	0.00	29.880 
21:35	55.7	55.7	55.7	59	41.6	0	0	---	0.00	29.875 
21:40	55.6	55.6	55.6	59	41.5	0	0	---	0.00	29.878 
21:45	55.4	55.4	55.4	60	41.7	0	0	---	0.00	29.876 
21:50	55.3	55.3	55.3	61	42.1	0	0	---	0.00	29.879 
21:55	55.1	55.1	55.1	61	41.9	0	0	---	0.00	29.882 
22:00	55.1	55.1	55.1	61	41.9	0	0	---	0.00	29.883 
22:05	55.0	55.0	55.0	61	41.8	0	0	---	0.00	29.885 
22:10	54.8	54.8	54.8	62	42.0	0	0	---	0.00	29.885 
22:15	54.7	54.7	54.7	62	41.9	0	0	---	0.00	29.886 
22:20	54.7	54.7	54.7	63	42.4	0	0	---	0.00	29.885 
22:25	54.5	54.5	54.5	62	41.7	0	1	292	0.00	29.888 
22:30	54.5	54.5	54.5	62	41.7	0	1	292	0.00	29.887 
22:35	54.4	54.4	54.4	62	41.7	0	0	---	0.00	29.891 
22:40	54.2	54.2	54.2	63	41.9	0	1	292	0.00	29.891 
22:45	53.9	53.9	53.9	64	42.0	0	1	292	0.00	29.895 
22:50	53.9	53.9	53.9	64	42.0	0	3	45	0.00	29.893 
22:55	53.9	53.9	53.9	64	42.0	0	2	45	0.00	29.894 
23:00	54.1	54.1	54.1	64	42.2	0	1	45	0.00	29.893 
23:05	54.1	54.1	54.1	65	42.6	0	0	---	0.00	29.887 
23:10	53.9	53.9	53.9	65	42.4	0	0	---	0.00	29.896 
23:15	53.9	53.9	53.9	65	42.4	0	1	45	0.00	29.899 
23:20	53.9	53.9	53.9	65	42.4	0	0	---	0.00	29.901 
23:25	53.8	53.8	53.8	65	42.3	0	0	---	0.00	29.903 
23:30	53.8	53.8	53.8	66	42.7	0	0	---	0.00	29.908 
23:35	53.6	53.6	53.6	66	42.5	0	0	---	0.00	29.910 
23:40	53.5	53.5	53.5	66	42.4	0	0	---	0.00	29.913 
23:45	53.5	53.5	53.5	67	42.8	0	0	---	0.00	29.913 
23:50	53.3	53.3	53.3	67	42.6	0	0	---	0.00	29.917 
23:55	53.3	53.3	53.3	68	43.0	0	0	---	0.00	29.924 

CoCoRaHS
IN-AL-39
A2 Web Hosting
Creative Commons License
GoDaddy
Look for:

loaded 2017-10-18 22:10:06 • last modified 2010-11-18 10:43:29
Privacy PolicyDisclaimer
• wx.awcolley.com is powered by PmWiki v.2002016 •
• all content (unless otherwise noted) © 2017 A W Colley